Time;durP1;ratioP1;P1;durP2;ratioP2;P2;SDS_P1;SDS_P2;PMS_P1;PMS_P2;Temp;Humidity;BMP_temperature;BMP_pressure;BME280_temperature;BME280_humidity;BME280_pressure;Samples;Min_cycle;Max_cycle;Signal;HPM_P1;HPM_P2
2022/12/28 00:00:11;;;;;;;28.65;11.40;;;;;;;0.34;100.00;99239.00;2603270;28;20045;-88
2022/12/28 00:01:30;;;;;;;29.13;11.88;;;;;;;0.28;100.00;99230.28;2602456;28;20049;-89
2022/12/28 00:02:46;;;;;;;23.88;11.20;;;;;;;0.09;100.00;99225.50;2600700;28;20073;-89
2022/12/28 00:04:05;;;;;;;30.70;12.05;;;;;;;0.24;100.00;99212.13;2602193;28;20457;-88
2022/12/28 00:05:21;;;;;;;24.67;10.90;;;;;;;0.18;100.00;99225.72;2600917;28;20045;-88
2022/12/28 00:06:36;;;;;;;27.35;10.68;;;;;;;-0.01;100.00;99214.94;2601390;28;20056;-89
2022/12/28 00:07:52;;;;;;;20.27;9.77;;;;;;;-0.19;100.00;99219.59;2600128;28;20067;-88
2022/12/28 00:09:10;;;;;;;22.73;9.50;;;;;;;-0.13;100.00;99206.03;2596948;28;20049;-88
2022/12/28 00:10:26;;;;;;;21.40;9.05;;;;;;;-0.21;100.00;99206.66;2602926;28;20056;-89
2022/12/28 00:11:42;;;;;;;21.95;10.50;;;;;;;0.04;100.00;99202.19;2602847;28;20497;-90
2022/12/28 00:12:57;;;;;;;18.48;9.65;;;;;;;0.20;100.00;99200.88;2600413;28;20564;-89
2022/12/28 00:14:13;;;;;;;19.67;8.80;;;;;;;0.24;100.00;99209.56;2600581;28;20057;-89
2022/12/28 00:15:28;;;;;;;24.38;9.93;;;;;;;-0.05;100.00;99207.97;2603258;28;20049;-89
2022/12/28 00:16:44;;;;;;;20.55;8.30;;;;;;;0.15;100.00;99204.19;2601487;28;20087;-89
2022/12/28 00:18:00;;;;;;;16.55;7.60;;;;;;;0.19;100.00;99195.72;2602920;28;20126;-90
2022/12/28 00:19:16;;;;;;;22.02;9.30;;;;;;;0.28;100.00;99196.81;2601030;28;20603;-88
2022/12/28 00:20:32;;;;;;;17.73;8.32;;;;;;;0.21;100.00;99194.03;2600994;28;20045;-89
2022/12/28 00:21:47;;;;;;;18.90;7.78;;;;;;;0.12;100.00;99190.38;2603225;28;20052;-88
2022/12/28 00:23:06;;;;;;;18.30;7.82;;;;;;;0.41;100.00;99186.81;2601597;28;20053;-89
2022/12/28 00:24:24;;;;;;;14.63;7.38;;;;;;;0.35;100.00;99194.38;2601482;28;20598;-89
2022/12/28 00:25:40;;;;;;;18.15;6.95;;;;;;;0.28;100.00;99191.66;2602690;28;20504;-89
2022/12/28 00:26:56;;;;;;;12.90;6.82;;;;;;;0.40;100.00;99197.97;2602170;28;20049;-88
2022/12/28 00:28:11;;;;;;;16.05;6.40;;;;;;;0.10;100.00;99198.91;2601516;28;20107;-90
2022/12/28 00:29:27;;;;;;;13.85;6.15;;;;;;;0.36;100.00;99197.00;2603075;28;20552;-89
2022/12/28 00:30:42;;;;;;;13.75;6.15;;;;;;;0.29;100.00;99197.69;2600498;28;20091;-89
2022/12/28 00:31:58;;;;;;;19.33;7.35;;;;;;;-0.01;100.00;99199.50;2600637;28;20801;-89
2022/12/28 00:33:14;;;;;;;25.08;10.05;;;;;;;-0.10;100.00;99204.38;2601688;28;20450;-88
2022/12/28 00:34:29;;;;;;;25.17;10.18;;;;;;;-0.01;100.00;99190.88;2596373;28;20053;-89
2022/12/28 00:35:52;;;;;;;25.17;9.55;;;;;;;0.04;100.00;99196.16;2602201;28;20053;-89
2022/12/28 00:37:08;;;;;;;20.60;9.80;;;;;;;0.07;100.00;99193.66;2599833;28;20060;-89
2022/12/28 00:38:24;;;;;;;22.00;8.95;;;;;;;0.31;100.00;99201.19;2601425;28;20041;-89
2022/12/28 00:39:41;;;;;;;26.20;11.77;;;;;;;0.22;100.00;99201.81;2600149;28;20621;-88
2022/12/28 00:40:57;;;;;;;25.75;10.32;;;;;;;0.25;100.00;99198.41;2600903;28;20171;-88
2022/12/28 00:42:13;;;;;;;26.75;11.40;;;;;;;0.28;100.00;99196.81;2600237;28;20091;-89
2022/12/28 00:43:29;;;;;;;26.40;11.23;;;;;;;0.21;100.00;99192.34;2601010;28;20534;-88
2022/12/28 00:44:45;;;;;;;35.85;14.05;;;;;;;0.06;100.00;99190.22;2601063;28;20056;-90
2022/12/28 00:46:02;;;;;;;31.88;13.15;;;;;;;0.23;100.00;99194.94;2601777;28;20049;-88
2022/12/28 00:47:18;;;;;;;30.83;11.82;;;;;;;-0.54;100.00;99189.47;2602476;28;20049;-88
2022/12/28 00:48:34;;;;;;;29.42;13.07;;;;;;;-0.38;100.00;99193.31;2600556;28;20423;-90
2022/12/28 00:49:50;;;;;;;28.98;13.00;;;;;;;-0.29;100.00;99192.69;2600783;28;20044;-88
2022/12/28 00:51:13;;;;;;;31.52;14.10;;;;;;;-0.18;100.00;99193.88;2596338;28;20054;-89
2022/12/28 00:52:28;;;;;;;21.55;9.38;;;;;;;-0.05;100.00;99192.53;2601513;28;20519;-89
2022/12/28 00:53:44;;;;;;;17.25;7.55;;;;;;;-0.19;100.00;99191.28;2600859;28;20048;-88
2022/12/28 00:55:00;;;;;;;20.50;9.30;;;;;;;-0.04;100.00;99191.69;2597091;28;20544;-89
2022/12/28 00:56:18;;;;;;;24.60;10.20;;;;;;;-0.27;100.00;99185.94;2602780;28;20080;-88
2022/12/28 00:57:36;;;;;;;29.70;12.95;;;;;;;-0.12;100.00;99187.19;2589358;28;20408;-88
2022/12/28 00:58:57;;;;;;;31.17;13.57;;;;;;;-0.18;100.00;99196.44;2594077;28;20060;-88
2022/12/28 01:00:13;;;;;;;28.92;12.75;;;;;;;0.02;100.00;99202.97;2600668;28;20041;-90
2022/12/28 01:01:29;;;;;;;27.95;12.45;;;;;;;0.04;100.00;99202.19;2602504;28;20407;-89
2022/12/28 01:02:44;;;;;;;29.67;12.38;;;;;;;0.03;100.00;99205.59;2600872;28;20076;-89
2022/12/28 01:04:00;;;;;;;26.48;11.57;;;;;;;-0.21;100.00;99206.66;2601342;28;20049;-89
2022/12/28 01:05:16;;;;;;;28.48;12.55;;;;;;;-0.18;100.00;99211.03;2601169;28;20150;-89
2022/12/28 01:06:31;;;;;;;26.42;12.02;;;;;;;-0.23;100.00;99202.28;2596292;28;20049;-88
2022/12/28 01:07:47;;;;;;;26.65;12.80;;;;;;;-0.18;100.00;99203.31;2598356;28;20048;-89
2022/12/28 01:09:03;;;;;;;33.45;11.65;;;;;;;-0.19;100.00;99207.56;2600615;28;20077;-90
2022/12/28 01:10:19;;;;;;;28.60;12.93;;;;;;;-0.21;100.00;99203.22;2602543;28;20060;-89
2022/12/28 01:11:34;;;;;;;27.20;11.40;;;;;;;-0.17;100.00;99211.06;2600973;28;20099;-88
2022/12/28 01:12:50;;;;;;;29.23;12.07;;;;;;;-0.18;100.00;99211.03;2602744;28;20088;-88
2022/12/28 01:14:05;;;;;;;22.58;11.13;;;;;;;-0.18;100.00;99206.75;2599713;28;20547;-90
2022/12/28 01:15:21;;;;;;;21.48;9.30;;;;;;;-0.56;100.00;99203.94;2600452;28;20579;-88
2022/12/28 01:16:37;;;;;;;17.50;9.32;;;;;;;-0.59;100.00;99214.16;2601175;28;20056;-88
2022/12/28 01:17:52;;;;;;;22.35;8.38;;;;;;;-0.27;100.00;99209.09;2601136;28;20060;-88
2022/12/28 01:19:13;;;;;;;15.40;7.10;;;;;;;-0.36;100.00;99222.53;2599834;28;20049;-89
2022/12/28 01:20:29;;;;;;;16.83;7.25;;;;;;;-0.50;100.00;99210.97;2603086;28;20488;-91
2022/12/28 01:21:48;;;;;;;16.90;7.82;;;;;;;-0.37;100.00;99207.06;2601045;28;20049;-89
2022/12/28 01:23:03;;;;;;;13.38;6.88;;;;;;;-0.42;100.00;99206.94;2600906;28;20053;-89
2022/12/28 01:24:19;;;;;;;14.57;7.22;;;;;;;-0.33;100.00;99208.91;2600982;28;20477;-88
2022/12/28 01:25:35;;;;;;;13.82;5.93;;;;;;;-0.91;100.00;99214.06;2600711;28;20050;-89
2022/12/28 01:26:50;;;;;;;14.60;6.32;;;;;;;-0.36;100.00;99206.25;2601424;28;20546;-89
2022/12/28 01:28:06;;;;;;;14.18;7.07;;;;;;;-0.34;100.00;99202.00;2601680;28;20060;-88
2022/12/28 01:29:21;;;;;;;17.55;7.55;;;;;;;-0.20;100.00;99207.56;2601873;28;20049;-88
2022/12/28 01:30:37;;;;;;;16.98;6.65;;;;;;;-0.11;100.00;99202.63;2600490;28;20050;-88
2022/12/28 01:31:52;;;;;;;15.48;6.45;;;;;;;-0.50;100.00;99204.16;2600933;28;20052;-88
2022/12/28 01:33:08;;;;;;;11.35;5.60;;;;;;;-0.40;100.00;99197.56;2600330;28;20048;-88
2022/12/28 01:34:24;;;;;;;15.30;5.60;;;;;;;-0.52;100.00;99192.06;2599699;28;20052;-90
2022/12/28 01:35:39;;;;;;;12.63;5.00;;;;;;;-0.71;100.00;99196.69;2595442;28;20531;-88
2022/12/28 01:36:55;;;;;;;11.70;5.28;;;;;;;-0.69;100.00;99199.31;2599296;28;20057;-89
2022/12/28 01:38:11;;;;;;;12.35;5.70;;;;;;;-0.36;100.00;99185.66;2601751;28;20044;-89
2022/12/28 01:39:26;;;;;;;11.35;5.22;;;;;;;-0.17;100.00;99190.47;2600820;28;20056;-88
2022/12/28 01:40:45;;;;;;;11.27;5.28;;;;;;;-0.33;100.00;99184.06;2600684;28;20073;-88
2022/12/28 01:42:00;;;;;;;10.75;4.15;;;;;;;-0.89;100.00;99189.28;2602542;28;20048;-88
2022/12/28 01:43:16;;;;;;;11.40;4.80;;;;;;;-0.69;100.00;99176.16;2620686;28;20663;-88
2022/12/28 01:44:44;;;;;;;9.52;4.03;;;;;;;-0.53;100.00;99172.31;2612604;28;20049;-88
2022/12/28 01:46:00;;;;;;;9.90;4.18;;;;;;;-0.09;100.00;99169.22;2601125;28;20089;-89
2022/12/28 01:47:23;;;;;;;8.00;3.90;;;;;;;-0.13;100.00;99168.28;2600513;28;20052;-88
2022/12/28 01:49:03;;;;;;;12.85;5.00;;;;;;;-0.22;100.00;99168.91;2601978;28;20051;-88
2022/12/28 01:50:25;;;;;;;13.20;5.25;;;;;;;-0.08;100.00;99168.41;2608355;28;20045;-88
2022/12/28 01:52:07;;;;;;;15.48;6.65;;;;;;;-0.25;100.00;99168.81;2598476;28;20064;-90
2022/12/28 01:53:22;;;;;;;18.20;8.80;;;;;;;-0.34;100.00;99168.56;2601833;28;20526;-88
2022/12/28 01:54:45;;;;;;;23.48;9.10;;;;;;;-0.54;100.00;99163.75;2601495;28;20077;-89
2022/12/28 01:56:00;;;;;;;24.67;9.10;;;;;;;-0.24;100.00;99162.84;2599582;28;20190;-88
2022/12/28 01:57:18;;;;;;;12.18;5.30;;;;;;;-0.64;100.00;99160.00;2600529;28;20057;-89
2022/12/28 01:58:34;;;;;;;21.08;8.93;;;;;;;-0.30;100.00;99157.50;2601567;28;20531;-88
2022/12/28 01:59:54;;;;;;;25.98;10.05;;;;;;;-0.33;100.00;99160.00;2601075;28;20045;-91
2022/12/28 02:01:10;;;;;;;25.63;10.70;;;;;;;-0.34;100.00;99150.53;2600124;28;20497;-88
2022/12/28 02:02:28;;;;;;;21.73;10.00;;;;;;;-0.42;100.00;99158.06;2600247;28;20451;-88
2022/12/28 02:03:44;;;;;;;23.55;9.38;;;;;;;-0.57;100.00;99146.50;2600607;28;20050;-89
2022/12/28 02:05:01;;;;;;;24.42;10.20;;;;;;;-0.32;100.00;99157.50;2600196;28;20045;-88
2022/12/28 02:06:16;;;;;;;27.55;9.85;;;;;;;-0.29;100.00;99148.97;2600652;28;20048;-88
2022/12/28 02:07:57;;;;;;;21.27;9.68;;;;;;;-0.39;100.00;99149.56;2600402;28;20080;-88
2022/12/28 02:09:18;;;;;;;18.90;8.93;;;;;;;-0.45;100.00;99145.97;2596073;28;20505;-88
2022/12/28 02:10:36;;;;;;;19.42;8.65;;;;;;;-0.56;100.00;99144.78;2599761;28;20095;-89
2022/12/28 02:11:52;;;;;;;21.80;9.45;;;;;;;-0.74;100.00;99143.44;2600028;28;20088;-89
2022/12/28 02:13:09;;;;;;;21.58;8.43;;;;;;;-0.63;100.00;99133.50;2601908;28;20642;-89
2022/12/28 02:14:24;;;;;;;30.15;9.38;;;;;;;-0.63;100.00;99140.31;2601030;28;20049;-89
2022/12/28 02:15:40;;;;;;;17.23;7.03;;;;;;;-0.64;100.00;99138.56;2602398;28;20092;-89
2022/12/28 02:16:55;;;;;;;16.35;7.57;;;;;;;-0.81;100.00;99130.38;2601666;28;20076;-89
2022/12/28 02:18:13;;;;;;;18.90;7.30;;;;;;;-0.74;100.00;99133.16;2602096;28;20488;-89
2022/12/28 02:19:49;;;;;;;18.10;7.63;;;;;;;-0.50;100.00;99126.97;2599730;28;20498;-89
2022/12/28 02:21:08;;;;;;;16.13;6.38;;;;;;;-0.91;100.00;99122.41;2601458;28;20045;-89
2022/12/28 02:22:50;;;;;;;19.90;7.22;;;;;;;-0.87;100.00;99125.91;2602390;28;20056;-89
2022/12/28 02:24:21;;;;;;;14.38;6.43;;;;;;;-0.59;100.00;99124.13;2600978;28;20946;-90
2022/12/28 02:25:56;;;;;;;15.25;5.60;;;;;;;-0.61;100.00;99123.22;2601916;28;20053;-88
2022/12/28 02:27:30;;;;;;;11.63;5.38;;;;;;;-0.61;100.00;99120.66;2600371;28;20048;-89
2022/12/28 02:29:22;;;;;;;11.35;5.43;;;;;;;-0.58;100.00;99118.16;2600171;28;20069;-89
2022/12/28 02:30:53;;;;;;;10.73;5.95;;;;;;;-0.55;100.00;99114.81;2599051;28;20609;-91
2022/12/28 02:32:19;;;;;;;13.65;4.97;;;;;;;-0.72;100.00;99110.94;2600098;28;20088;-88
2022/12/28 02:33:41;;;;;;;13.93;5.72;;;;;;;-0.66;100.00;99111.94;2601796;28;20048;-89
2022/12/28 02:35:21;;;;;;;11.82;4.72;;;;;;;-0.86;100.00;99112.25;2600449;28;20064;-89
2022/12/28 02:36:48;;;;;;;12.40;4.80;;;;;;;-0.77;100.00;99109.06;2600594;28;20482;-90
2022/12/28 02:38:36;;;;;;;13.13;5.70;;;;;;;-0.39;100.00;99116.13;2595579;28;20057;-89
2022/12/28 02:39:57;;;;;;;14.35;5.10;;;;;;;-0.38;100.00;99112.72;2604341;28;20152;-89
2022/12/28 02:41:19;;;;;;;13.20;5.65;;;;;;;-0.53;100.00;99111.47;2599436;28;20107;-89
2022/12/28 02:42:36;;;;;;;16.67;6.13;;;;;;;-0.53;100.00;99105.44;2600446;28;20049;-89
2022/12/28 02:43:53;;;;;;;12.63;5.50;;;;;;;-0.76;100.00;99106.53;2601304;28;20076;-89
2022/12/28 02:50:15;;;;;;;18.83;7.32;;;;;;;-0.49;100.00;99085.00;2601501;28;20047;-88
2022/12/28 02:51:42;;;;;;;15.50;6.78;;;;;;;-0.57;100.00;99081.31;2602229;28;20068;-89
2022/12/28 02:53:11;;;;;;;21.45;8.63;;;;;;;-0.60;100.00;99089.84;2601821;28;20071;-89
2022/12/28 02:57:01;;;;;;;26.83;8.55;;;;;;;-0.71;100.00;99084.38;2613165;28;20507;-89
2022/12/28 02:58:36;;;;;;;27.83;9.10;;;;;;;-0.53;100.00;99077.13;2601121;28;20045;-89
2022/12/28 03:00:02;;;;;;;18.08;8.18;;;;;;;-0.52;100.00;99074.63;2603383;28;20056;-88
2022/12/28 03:01:23;;;;;;;16.25;7.63;;;;;;;-0.64;100.00;99074.28;2601595;28;20893;-90
2022/12/28 03:03:00;;;;;;;25.52;8.07;;;;;;;-0.71;100.00;99071.53;2597705;28;20128;-90
2022/12/28 03:04:31;;;;;;;20.20;7.60;;;;;;;-0.69;100.00;99070.72;2603016;28;20049;-89
2022/12/28 03:09:40;;;;;;;17.63;6.97;;;;;;;-0.64;100.00;99056.28;2601385;28;20567;-90
2022/12/28 03:11:08;;;;;;;22.38;8.82;;;;;;;-0.66;100.00;99055.38;2603971;28;20075;-89
2022/12/28 03:12:32;;;;;;;21.23;9.85;;;;;;;-0.89;100.00;99050.47;2602267;28;20076;-89
2022/12/28 03:14:15;;;;;;;23.17;9.50;;;;;;;-0.83;100.00;99045.50;2601265;28;20816;-88
2022/12/28 03:15:35;;;;;;;26.15;9.75;;;;;;;-0.68;100.00;99037.31;2602306;28;20219;-90
2022/12/28 03:31:40;;;;;;;23.38;8.07;;;;;;;-1.03;100.00;99017.53;2602637;28;20126;-88
2022/12/28 03:32:55;;;;;;;17.92;7.65;;;;;;;-0.91;100.00;99011.00;2603817;28;20492;-90
2022/12/28 03:34:13;;;;;;;27.80;9.15;;;;;;;-0.81;100.00;99014.69;2601272;28;20366;-89
2022/12/28 03:35:53;;;;;;;27.92;8.27;;;;;;;-1.06;100.00;99007.16;2621625;28;20083;-90
2022/12/28 03:37:27;;;;;;;19.15;8.13;;;;;;;-0.83;100.00;99006.06;2606845;28;20136;-89
2022/12/28 03:38:59;;;;;;;20.52;8.20;;;;;;;-1.00;100.00;99006.47;2603832;28;20168;-90
2022/12/28 03:40:46;;;;;;;30.75;10.82;;;;;;;-1.28;100.00;99013.41;2604003;28;20045;-90
2022/12/28 03:44:06;;;;;;;30.98;9.10;;;;;;;-1.29;100.00;98996.25;2603475;28;20045;-89
2022/12/28 03:45:42;;;;;;;26.08;9.55;;;;;;;-1.23;100.00;98988.69;2597486;28;20038;-89
2022/12/28 03:47:07;;;;;;;21.65;8.52;;;;;;;-1.07;100.00;98981.41;2607786;28;20064;-91
2022/12/28 03:48:24;;;;;;;24.60;9.13;;;;;;;-0.97;100.00;98977.44;2602838;28;20738;-90
2022/12/28 03:49:40;;;;;;;21.42;9.20;;;;;;;-0.89;100.00;98975.91;2602647;28;20500;-90
2022/12/28 03:50:56;;;;;;;17.83;7.43;;;;;;;-1.20;100.00;98975.09;2602478;28;20501;-89
2022/12/28 03:52:12;;;;;;;17.55;7.70;;;;;;;-1.16;100.00;98975.22;2603043;28;20404;-88
2022/12/28 03:53:35;;;;;;;18.85;8.20;;;;;;;-0.96;100.00;98971.44;2600873;28;20065;-89
2022/12/28 03:54:51;;;;;;;21.70;8.25;;;;;;;-0.87;100.00;98969.09;2597227;28;20436;-89
2022/12/28 03:56:16;;;;;;;20.65;8.68;;;;;;;-0.84;100.00;98968.31;2601542;28;20053;-91
2022/12/28 03:57:32;;;;;;;19.15;8.18;;;;;;;-0.91;100.00;98970.75;2602259;28;20106;-89
2022/12/28 03:58:48;;;;;;;21.60;7.82;;;;;;;-0.87;100.00;98966.53;2601876;28;20049;-88
2022/12/28 04:00:05;;;;;;;17.00;7.88;;;;;;;-1.20;100.00;98962.25;2601458;28;20500;-88
2022/12/28 04:01:21;;;;;;;17.27;7.07;;;;;;;-0.96;100.00;98966.31;2601485;28;20038;-89
2022/12/28 04:02:37;;;;;;;18.42;7.50;;;;;;;-0.91;100.00;98967.28;2601718;28;20069;-89
2022/12/28 04:03:52;;;;;;;13.73;7.07;;;;;;;-0.84;100.00;98958.91;2597115;28;20103;-89
2022/12/28 04:05:08;;;;;;;19.15;7.75;;;;;;;-0.76;100.00;98962.56;2603624;28;20068;-89
2022/12/28 04:06:25;;;;;;;15.55;6.40;;;;;;;-1.00;100.00;98958.50;2602570;28;20041;-89
2022/12/28 04:07:41;;;;;;;16.95;7.60;;;;;;;-0.81;100.00;98958.13;2601480;28;20088;-89
2022/12/28 04:08:56;;;;;;;15.82;6.75;;;;;;;-0.91;100.00;98954.44;2603426;28;20055;-90
2022/12/28 04:10:12;;;;;;;17.40;6.97;;;;;;;-0.92;100.00;98952.69;2601396;28;20389;-91
2022/12/28 04:11:28;;;;;;;18.00;6.55;;;;;;;-0.92;100.00;98955.28;2601411;28;20585;-91
2022/12/28 04:12:43;;;;;;;15.57;6.43;;;;;;;-0.73;100.00;98954.06;2600878;28;20061;-89
2022/12/28 04:13:59;;;;;;;21.13;7.45;;;;;;;-0.81;100.00;98952.97;2601806;28;20053;-89
2022/12/28 04:15:14;;;;;;;18.83;7.97;;;;;;;-1.07;100.00;98958.28;2601406;28;20080;-90
2022/12/28 04:16:31;;;;;;;19.42;7.47;;;;;;;-0.89;100.00;98956.22;2603531;28;20049;-89
2022/12/28 04:17:46;;;;;;;16.40;7.40;;;;;;;-0.88;100.00;98941.66;2602040;28;20131;-89
2022/12/28 04:19:02;;;;;;;23.02;7.97;;;;;;;-0.94;100.00;98946.66;2600629;28;20053;-89
2022/12/28 04:20:18;;;;;;;29.40;9.20;;;;;;;-0.96;100.00;98944.03;2603676;28;20657;-89
2022/12/28 04:21:33;;;;;;;23.08;9.00;;;;;;;-1.08;100.00;98944.59;2600522;28;20073;-90
2022/12/28 04:22:49;;;;;;;50.95;11.02;;;;;;;-1.01;100.00;98943.06;2601972;28;20542;-89
2022/12/28 04:24:05;;;;;;;30.42;10.10;;;;;;;-1.40;100.00;98934.28;2603658;28;20049;-89
2022/12/28 04:25:20;;;;;;;42.25;10.82;;;;;;;-1.04;100.00;98933.56;2601730;28;20049;-90
2022/12/28 04:26:36;;;;;;;44.00;10.85;;;;;;;-0.95;100.00;98934.63;2602183;28;20082;-89
2022/12/28 04:27:52;;;;;;;44.53;10.95;;;;;;;-0.93;100.00;98932.97;2601709;28;20444;-90
2022/12/28 04:29:07;;;;;;;24.67;9.95;;;;;;;-0.85;100.00;98928.88;2600245;28;20080;-90
2022/12/28 04:30:23;;;;;;;25.98;9.85;;;;;;;-0.81;100.00;98930.72;2602262;28;20060;-89
2022/12/28 04:31:38;;;;;;;22.35;8.55;;;;;;;-0.91;100.00;98923.59;2600340;28;20045;-89
2022/12/28 04:32:55;;;;;;;25.90;9.85;;;;;;;-0.95;100.00;98925.22;2601346;28;20373;-89
2022/12/28 04:34:10;;;;;;;24.58;9.50;;;;;;;-0.79;100.00;98918.78;2603203;28;20049;-89
2022/12/28 04:35:26;;;;;;;20.20;8.07;;;;;;;-0.84;100.00;98922.91;2603268;28;20056;-89
2022/12/28 04:36:42;;;;;;;18.63;8.52;;;;;;;-0.81;100.00;98915.28;2596670;28;20053;-90
2022/12/28 04:37:58;;;;;;;21.05;9.02;;;;;;;-0.89;100.00;98915.09;2602117;28;20057;-89
2022/12/28 04:39:14;;;;;;;17.30;8.07;;;;;;;-0.81;100.00;98912.72;2601066;28;20061;-91
2022/12/28 04:40:29;;;;;;;17.13;7.68;;;;;;;-0.84;100.00;98915.19;2602689;28;20053;-91
2022/12/28 04:41:45;;;;;;;21.63;8.35;;;;;;;-0.79;100.00;98921.34;2602078;28;20057;-89
2022/12/28 04:43:00;;;;;;;17.42;7.70;;;;;;;-0.86;100.00;98911.72;2602142;28;20057;-89
2022/12/28 04:44:16;;;;;;;17.40;7.50;;;;;;;-0.82;100.00;98913.56;2601571;28;20049;-90
2022/12/28 04:45:32;;;;;;;12.10;6.35;;;;;;;-0.98;100.00;98916.53;2602599;28;20049;-89
2022/12/28 04:46:47;;;;;;;17.48;7.18;;;;;;;-0.87;100.00;98915.13;2596637;28;20049;-90
2022/12/28 04:48:03;;;;;;;17.85;7.47;;;;;;;-0.71;100.00;98911.25;2600810;28;20083;-88
2022/12/28 04:49:19;;;;;;;16.60;7.40;;;;;;;-0.76;100.00;98911.13;2601105;28;20053;-88
2022/12/28 04:50:36;;;;;;;17.48;7.90;;;;;;;-0.62;100.00;98908.03;2603459;28;20539;-89
2022/12/28 04:51:52;;;;;;;17.77;6.97;;;;;;;-0.93;100.00;98913.25;2602118;28;20049;-88
2022/12/28 04:53:08;;;;;;;18.90;8.23;;;;;;;-0.89;100.00;98916.78;2602741;28;20127;-89
2022/12/28 04:54:23;;;;;;;18.35;8.52;;;;;;;-0.68;100.00;98915.59;2601804;28;20049;-89
2022/12/28 04:55:39;;;;;;;16.23;7.40;;;;;;;-0.62;100.00;98908.91;2601338;28;20488;-89
2022/12/28 04:56:54;;;;;;;16.10;7.20;;;;;;;-0.62;100.00;98911.50;2601565;28;20510;-89
2022/12/28 04:58:10;;;;;;;16.55;7.13;;;;;;;-0.63;100.00;98919.16;2600767;28;20149;-88
2022/12/28 04:59:25;;;;;;;17.27;7.35;;;;;;;-0.62;100.00;98916.63;2601319;28;20053;-89
2022/12/28 05:00:41;;;;;;;16.13;6.95;;;;;;;-0.60;100.00;98906.34;2602415;28;20403;-89
2022/12/28 05:01:57;;;;;;;15.20;6.95;;;;;;;-0.68;100.00;98910.47;2602005;28;20127;-89
2022/12/28 05:03:13;;;;;;;13.77;7.35;;;;;;;-0.93;100.00;98918.41;2602954;28;20056;-92
2022/12/28 05:04:28;;;;;;;16.13;7.20;;;;;;;-0.94;100.00;98913.25;2602325;28;20049;-89
2022/12/28 05:05:44;;;;;;;16.48;6.90;;;;;;;-0.78;100.00;98906.78;2602374;28;20053;-90
2022/12/28 05:06:59;;;;;;;13.40;6.72;;;;;;;-0.95;100.00;98908.94;2602431;28;20571;-89
2022/12/28 05:08:15;;;;;;;15.18;7.65;;;;;;;-0.90;100.00;98904.75;2602103;28;20064;-93
2022/12/28 05:09:31;;;;;;;14.23;7.07;;;;;;;-0.93;100.00;98909.84;2600680;28;20092;-90
2022/12/28 05:10:46;;;;;;;18.30;6.88;;;;;;;-1.10;100.00;98904.25;2601333;28;20136;-89
2022/12/28 05:12:02;;;;;;;14.77;7.07;;;;;;;-1.06;100.00;98901.81;2602592;28;20042;-89
2022/12/28 05:13:18;;;;;;;17.63;7.65;;;;;;;-0.95;100.00;98896.09;2597086;28;20049;-89
2022/12/28 05:14:34;;;;;;;15.43;6.65;;;;;;;-0.97;100.00;98896.03;2603102;28;20053;-89
2022/12/28 05:15:49;;;;;;;14.73;6.47;;;;;;;-1.02;100.00;98895.06;2600666;28;20573;-90
2022/12/28 05:17:05;;;;;;;15.52;7.53;;;;;;;-0.91;100.00;98887.59;2600070;28;20045;-90
2022/12/28 05:18:21;;;;;;;17.50;7.85;;;;;;;-0.84;100.00;98886.91;2602251;28;20183;-89
2022/12/28 05:19:36;;;;;;;13.70;6.18;;;;;;;-0.82;100.00;98890.41;2600176;28;20389;-90
2022/12/28 05:20:59;;;;;;;16.77;6.85;;;;;;;-0.94;100.00;98890.09;2599971;28;20042;-90
2022/12/28 05:22:15;;;;;;;16.52;6.43;;;;;;;-0.93;100.00;98881.56;2602252;28;20511;-89
2022/12/28 05:23:34;;;;;;;15.43;6.72;;;;;;;-1.12;100.00;98891.34;2600884;28;20072;-90
2022/12/28 05:24:50;;;;;;;14.98;6.78;;;;;;;-1.20;100.00;98888.56;2601375;28;20072;-90
2022/12/28 05:26:08;;;;;;;16.70;7.20;;;;;;;-1.16;100.00;98887.84;2602865;28;20493;-89
2022/12/28 05:27:24;;;;;;;13.35;6.18;;;;;;;-0.97;100.00;98895.19;2599894;28;21072;-90
2022/12/28 05:28:40;;;;;;;15.50;6.28;;;;;;;-0.87;100.00;98895.44;2601425;28;20049;-89
2022/12/28 05:29:55;;;;;;;13.68;6.30;;;;;;;-0.84;100.00;98886.06;2602465;28;20041;-89
2022/12/28 05:31:14;;;;;;;16.75;6.70;;;;;;;-0.90;100.00;98895.38;2601398;28;20507;-90
2022/12/28 05:32:30;;;;;;;14.25;6.35;;;;;;;-0.66;100.00;98891.66;2602809;28;20041;-90
2022/12/28 05:33:46;;;;;;;13.48;6.38;;;;;;;-0.61;100.00;98886.63;2598658;28;20073;-89
2022/12/28 05:35:01;;;;;;;15.75;6.40;;;;;;;-0.67;100.00;98887.34;2601273;28;20110;-90
2022/12/28 05:36:20;;;;;;;15.07;6.45;;;;;;;-0.74;100.00;98888.88;2600423;28;20054;-89
2022/12/28 05:37:35;;;;;;;15.43;6.13;;;;;;;-0.67;100.00;98889.91;2599504;28;20049;-89
2022/12/28 05:38:52;;;;;;;10.00;5.78;;;;;;;-0.71;100.00;98880.38;2599457;28;20165;-90
2022/12/28 05:40:08;;;;;;;14.38;6.40;;;;;;;-0.64;100.00;98878.84;2602547;28;20052;-90
2022/12/28 05:41:26;;;;;;;15.27;6.57;;;;;;;-0.65;100.00;98884.81;2601866;28;20471;-91
2022/12/28 05:42:42;;;;;;;14.35;6.57;;;;;;;-0.63;100.00;98884.03;2596299;28;20049;-89
2022/12/28 05:43:58;;;;;;;17.23;6.95;;;;;;;-0.53;100.00;98886.81;2601498;28;20393;-90
2022/12/28 05:45:14;;;;;;;14.50;6.38;;;;;;;-0.45;100.00;98880.16;2600851;28;20045;-89
2022/12/28 05:46:32;;;;;;;20.75;6.57;;;;;;;-0.47;100.00;98890.38;2601281;28;20419;-92
2022/12/28 05:47:48;;;;;;;20.05;7.30;;;;;;;-0.60;100.00;98891.81;2602688;28;20080;-90
2022/12/28 05:49:07;;;;;;;15.70;6.75;;;;;;;-0.52;100.00;98886.84;2601368;28;20084;-90
2022/12/28 05:50:23;;;;;;;14.48;6.63;;;;;;;-0.54;100.00;98888.53;2601129;28;20495;-88
2022/12/28 05:51:38;;;;;;;16.52;6.70;;;;;;;-0.44;100.00;98882.75;2601089;28;20073;-89
2022/12/28 05:52:54;;;;;;;14.73;6.30;;;;;;;-0.50;100.00;98876.59;2595997;28;20514;-89
2022/12/28 05:54:09;;;;;;;14.05;6.03;;;;;;;-0.48;100.00;98878.38;2599234;28;20144;-89
2022/12/28 05:55:25;;;;;;;13.27;6.72;;;;;;;-0.70;100.00;98876.97;2602207;28;20049;-91
2022/12/28 05:56:41;;;;;;;13.10;6.20;;;;;;;-0.57;100.00;98878.13;2600624;28;20069;-89
2022/12/28 05:57:56;;;;;;;14.40;6.70;;;;;;;-0.78;100.00;98875.91;2596139;28;20050;-89
2022/12/28 05:59:12;;;;;;;20.30;7.75;;;;;;;-0.74;100.00;98875.19;2600248;28;20540;-89
2022/12/28 06:00:27;;;;;;;16.92;7.45;;;;;;;-0.80;100.00;98875.00;2600497;28;20053;-89
2022/12/28 06:01:43;;;;;;;19.25;8.10;;;;;;;-0.83;100.00;98880.09;2602667;28;20080;-89
2022/12/28 06:02:59;;;;;;;19.83;7.55;;;;;;;-1.00;100.00;98878.81;2600344;28;20156;-89
2022/12/28 06:04:17;;;;;;;15.60;7.13;;;;;;;-0.96;100.00;98881.50;2596011;28;20052;-89
2022/12/28 06:05:33;;;;;;;17.77;7.53;;;;;;;-1.24;100.00;98881.63;2600672;28;20053;-89
2022/12/28 06:06:49;;;;;;;17.42;7.70;;;;;;;-1.18;100.00;98880.94;2600419;28;20045;-89
2022/12/28 06:08:04;;;;;;;19.88;7.28;;;;;;;-0.91;100.00;98885.03;2599279;28;20381;-89
2022/12/28 06:09:20;;;;;;;14.07;6.18;;;;;;;-1.15;100.00;98879.31;2600994;28;20442;-89
2022/12/28 06:10:36;;;;;;;17.65;7.25;;;;;;;-0.91;100.00;98874.75;2596075;28;20122;-89
2022/12/28 06:11:51;;;;;;;17.67;7.25;;;;;;;-0.81;100.00;98871.59;2600179;28;20045;-90
2022/12/28 06:13:07;;;;;;;15.93;6.72;;;;;;;-0.72;100.00;98864.09;2600187;28;20140;-90
2022/12/28 06:14:23;;;;;;;19.00;8.95;;;;;;;-0.67;100.00;98860.78;2601271;28;20106;-89
2022/12/28 06:15:38;;;;;;;18.90;8.27;;;;;;;-0.66;100.00;98862.50;2601014;28;20045;-88
2022/12/28 06:16:54;;;;;;;22.08;9.65;;;;;;;-0.52;100.00;98866.28;2601368;28;20067;-89
2022/12/28 06:18:09;;;;;;;30.65;11.73;;;;;;;-0.68;100.00;98865.03;2601257;28;20115;-89
2022/12/28 06:19:25;;;;;;;23.63;9.48;;;;;;;-0.72;100.00;98866.66;2600457;28;20134;-90
2022/12/28 06:20:41;;;;;;;24.65;10.40;;;;;;;-0.73;100.00;98872.63;2601518;28;20577;-89
2022/12/28 06:21:56;;;;;;;22.08;8.98;;;;;;;-0.62;100.00;98862.63;2600307;28;20546;-89
2022/12/28 06:23:12;;;;;;;16.17;6.88;;;;;;;-1.17;100.00;98868.13;2601948;28;20518;-90
2022/12/28 06:24:28;;;;;;;15.65;7.15;;;;;;;-1.02;100.00;98874.50;2602600;28;20057;-90
2022/12/28 06:25:43;;;;;;;18.45;8.15;;;;;;;-0.87;100.00;98874.00;2603368;28;20121;-89
2022/12/28 06:26:59;;;;;;;19.17;7.82;;;;;;;-0.71;100.00;98880.38;2603577;28;20045;-89
2022/12/28 06:28:14;;;;;;;20.77;7.75;;;;;;;-0.72;100.00;98881.22;2602352;28;20041;-89